Terminal Aerodrome Forecast
Issued by NWS

Home | Current Version | Previous Version | Text Only | Print | Product List | Glossary On
Versions: 1 2 3 4 5 6 7 8 9 10 11 12 13 14 15 16
000
FTUS43 KGRB 281700
TAFMTW
TAF
KMTW 281734Z 2818/0118 21010KT P6SM SCT250
     FM010400 21005KT P6SM BKN070
     FM010800 23005KT P6SM -SN SCT020 BKN030 OVC050
     FM011500 24008G15KT P6SM SCT015 SCT030 BKN150=

USA.gov is the U.S. government's official web portal to all federal, state and local government web resources and services.